sensor_id;sensor_type;location;lat;lon;timestamp;pressure;altitude;pressure_sealevel;temperature;humidity
44531;BME280;30240;47.418;0.700;2022-07-22T00:01:28;100594.06127929688;;;21.44;73.3
44531;BME280;30240;47.418;0.700;2022-07-22T00:03:54;100588.12255859375;;;21.37;73.41
44531;BME280;30240;47.418;0.700;2022-07-22T00:06:18;100585.21728515625;;;21.24;73.93
44531;BME280;30240;47.418;0.700;2022-07-22T00:08:44;100585.82763671875;;;21.24;73.93
44531;BME280;30240;47.418;0.700;2022-07-22T00:11:08;100584.79614257812;;;21.3;73.85
44531;BME280;30240;47.418;0.700;2022-07-22T00:13:34;100584.79614257812;;;21.3;73.85
44531;BME280;30240;47.418;0.700;2022-07-22T00:15:59;100582.06787109375;;;21.36;73.31
44531;BME280;30240;47.418;0.700;2022-07-22T00:18:24;100577.59399414062;;;21.24;73.82
44531;BME280;30240;47.418;0.700;2022-07-22T00:20:48;100578.9794921875;;;21.1;74.17
44531;BME280;30240;47.418;0.700;2022-07-22T00:23:14;100573.91357421875;;;21.05;74.38
44531;BME280;30240;47.418;0.700;2022-07-22T00:25:38;100573.91357421875;;;21.05;74.38
44531;BME280;30240;47.418;0.700;2022-07-22T00:28:04;100573.16284179688;;;20.92;74.87
44531;BME280;30240;47.418;0.700;2022-07-22T00:30:29;100566.13159179688;;;20.85;75.06
44531;BME280;30240;47.418;0.700;2022-07-22T00:32:53;100563.14086914062;;;20.82;75.3
44531;BME280;30240;47.418;0.700;2022-07-22T00:35:18;100562.5244140625;;;20.77;74.74
44531;BME280;30240;47.418;0.700;2022-07-22T00:37:43;100562.5244140625;;;20.77;74.74
44531;BME280;30240;47.418;0.700;2022-07-22T00:40:09;100561.87744140625;;;20.74;74.98
44531;BME280;30240;47.418;0.700;2022-07-22T00:42:34;100561.48681640625;;;20.58;75.19
44531;BME280;30240;47.418;0.700;2022-07-22T00:44:58;100562.68920898438;;;20.65;74.64
44531;BME280;30240;47.418;0.700;2022-07-22T00:47:24;100557.97119140625;;;20.58;74.99
44531;BME280;30240;47.418;0.700;2022-07-22T00:49:48;100557.97119140625;;;20.58;74.99
44531;BME280;30240;47.418;0.700;2022-07-22T00:52:14;100562.43896484375;;;20.43;75.32
44531;BME280;30240;47.418;0.700;2022-07-22T00:54:39;100559.84497070312;;;20.37;75.24
44531;BME280;30240;47.418;0.700;2022-07-22T00:57:04;100553.2470703125;;;20.32;75.97
44531;BME280;30240;47.418;0.700;2022-07-22T00:59:29;100554.4677734375;;;20.29;75.59
44531;BME280;30240;47.418;0.700;2022-07-22T01:01:54;100554.87670898438;;;20.34;75.2
44531;BME280;30240;47.418;0.700;2022-07-22T01:04:19;100554.87670898438;;;20.34;75.2
44531;BME280;30240;47.418;0.700;2022-07-22T01:06:43;100550.83618164062;;;20.3;75.4
44531;BME280;30240;47.418;0.700;2022-07-22T01:09:08;100551.171875;;;20.33;75.56
44531;BME280;30240;47.418;0.700;2022-07-22T01:11:33;100548.90747070312;;;20.32;75.6
44531;BME280;30240;47.418;0.700;2022-07-22T01:13:58;100547.74780273438;;;20.29;75.79
44531;BME280;30240;47.418;0.700;2022-07-22T01:16:24;100547.74780273438;;;20.29;75.79
44531;BME280;30240;47.418;0.700;2022-07-22T01:18:49;100542.71850585938;;;20.23;76.08
44531;BME280;30240;47.418;0.700;2022-07-22T01:21:15;100550.37231445312;;;20.23;76.05
44531;BME280;30240;47.418;0.700;2022-07-22T01:23:39;100546.7529296875;;;20.19;76.16
44531;BME280;30240;47.418;0.700;2022-07-22T01:26:04;100545.23315429688;;;20.12;76.3
44531;BME280;30240;47.418;0.700;2022-07-22T01:28:29;100545.23315429688;;;20.12;76.3
44531;BME280;30240;47.418;0.700;2022-07-22T01:30:54;100547.59521484375;;;20.16;76.69
44531;BME280;30240;47.418;0.700;2022-07-22T01:33:20;100545.8251953125;;;20.13;76.24
44531;BME280;30240;47.418;0.700;2022-07-22T01:35:44;100541.97387695312;;;20.13;76.12
44531;BME280;30240;47.418;0.700;2022-07-22T01:38:08;100539.53247070312;;;20.08;76.28
44531;BME280;30240;47.418;0.700;2022-07-22T01:40:34;100539.53247070312;;;20.08;76.28
44531;BME280;30240;47.418;0.700;2022-07-22T01:42:58;100533.36181640625;;;20.01;76.73
44531;BME280;30240;47.418;0.700;2022-07-22T01:45:24;100529.20532226562;;;19.92;76.73
44531;BME280;30240;47.418;0.700;2022-07-22T01:47:48;100527.93579101562;;;19.98;76.81
44531;BME280;30240;47.418;0.700;2022-07-22T01:50:13;100526.76391601562;;;19.92;76.83
44531;BME280;30240;47.418;0.700;2022-07-22T01:52:39;100526.76391601562;;;19.92;76.83
44531;BME280;30240;47.418;0.700;2022-07-22T01:55:04;100526.171875;;;20.01;76.78
44531;BME280;30240;47.418;0.700;2022-07-22T01:57:28;100525.50048828125;;;19.99;76.65
44531;BME280;30240;47.418;0.700;2022-07-22T01:59:53;100528.01513671875;;;19.95;76.9
44531;BME280;30240;47.418;0.700;2022-07-22T02:02:18;100521.34399414062;;;19.84;77.34
44531;BME280;30240;47.418;0.700;2022-07-22T02:04:44;100521.34399414062;;;19.84;77.34
44531;BME280;30240;47.418;0.700;2022-07-22T02:07:08;100524.49951171875;;;19.85;77.33
44531;BME280;30240;47.418;0.700;2022-07-22T02:09:33;100518.12744140625;;;19.85;77.39
44531;BME280;30240;47.418;0.700;2022-07-22T02:11:59;100517.12646484375;;;19.84;77.48
44531;BME280;30240;47.418;0.700;2022-07-22T02:14:23;100516.49780273438;;;19.77;77.55
44531;BME280;30240;47.418;0.700;2022-07-22T02:16:49;100516.49780273438;;;19.77;77.55
44531;BME280;30240;47.418;0.700;2022-07-22T02:19:13;100519.17724609375;;;19.74;77.86
44531;BME280;30240;47.418;0.700;2022-07-22T02:21:39;100517.38891601562;;;19.74;77.85
44531;BME280;30240;47.418;0.700;2022-07-22T02:24:04;100516.15600585938;;;19.77;77.96
44531;BME280;30240;47.418;0.700;2022-07-22T02:26:28;100517.15698242188;;;19.67;78.08
44531;BME280;30240;47.418;0.700;2022-07-22T02:28:53;100517.15698242188;;;19.67;78.08
44531;BME280;30240;47.418;0.700;2022-07-22T02:31:18;100512.04833984375;;;19.71;78.31
44531;BME280;30240;47.418;0.700;2022-07-22T02:33:43;100515.34423828125;;;19.7;78.46
44531;BME280;30240;47.418;0.700;2022-07-22T02:36:09;100511.01684570312;;;19.67;78.35
44531;BME280;30240;47.418;0.700;2022-07-22T02:38:33;100508.59985351562;;;19.61;78.49
44531;BME280;30240;47.418;0.700;2022-07-22T02:40:59;100512.24975585938;;;19.59;78.74
44531;BME280;30240;47.418;0.700;2022-07-22T02:43:23;100512.24975585938;;;19.59;78.74
44531;BME280;30240;47.418;0.700;2022-07-22T02:45:48;100510.7177734375;;;19.5;78.96
44531;BME280;30240;47.418;0.700;2022-07-22T02:48:13;100504.7119140625;;;19.46;79.09
44531;BME280;30240;47.418;0.700;2022-07-22T02:50:45;100505.2978515625;;;19.46;79.02
44531;BME280;30240;47.418;0.700;2022-07-22T02:53:03;100509.1552734375;;;19.37;79.2
44531;BME280;30240;47.418;0.700;2022-07-22T02:55:29;100509.1552734375;;;19.37;79.2
44531;BME280;30240;47.418;0.700;2022-07-22T02:57:53;100509.09423828125;;;19.37;79.32
44531;BME280;30240;47.418;0.700;2022-07-22T03:00:18;100509.85717773438;;;19.28;79.7
44531;BME280;30240;47.418;0.700;2022-07-22T03:02:43;100512.24975585938;;;19.25;79.69
44531;BME280;30240;47.418;0.700;2022-07-22T03:05:09;100507.26318359375;;;19.28;79.86
44531;BME280;30240;47.418;0.700;2022-07-22T03:07:33;100507.26318359375;;;19.28;79.86
44531;BME280;30240;47.418;0.700;2022-07-22T03:09:59;100508.544921875;;;19.22;80.06
44531;BME280;30240;47.418;0.700;2022-07-22T03:12:23;100502.40478515625;;;19.21;80.05
44531;BME280;30240;47.418;0.700;2022-07-22T03:14:48;100509.033203125;;;19.26;79.79
44531;BME280;30240;47.418;0.700;2022-07-22T03:17:14;100508.642578125;;;19.32;79.64
44531;BME280;30240;47.418;0.700;2022-07-22T03:19:38;100508.642578125;;;19.32;79.64
44531;BME280;30240;47.418;0.700;2022-07-22T03:22:03;100513.73291015625;;;19.19;80.0
44531;BME280;30240;47.418;0.700;2022-07-22T03:24:28;100515.99731445312;;;19.28;79.71
44531;BME280;30240;47.418;0.700;2022-07-22T03:26:53;100513.55590820312;;;19.26;79.64
44531;BME280;30240;47.418;0.700;2022-07-22T03:29:18;100516.21704101562;;;19.18;79.93
44531;BME280;30240;47.418;0.700;2022-07-22T03:31:43;100516.21704101562;;;19.18;79.93
44531;BME280;30240;47.418;0.700;2022-07-22T03:34:08;100507.62329101562;;;19.12;80.16
44531;BME280;30240;47.418;0.700;2022-07-22T03:36:33;100504.20532226562;;;19.14;80.25
44531;BME280;30240;47.418;0.700;2022-07-22T03:38:58;100501.123046875;;;19.05;80.37
44531;BME280;30240;47.418;0.700;2022-07-22T03:41:24;100503.2470703125;;;19.04;80.33
44531;BME280;30240;47.418;0.700;2022-07-22T03:43:49;100503.2470703125;;;19.04;80.33
44531;BME280;30240;47.418;0.700;2022-07-22T03:46:13;100497.93701171875;;;19.07;80.45
44531;BME280;30240;47.418;0.700;2022-07-22T03:48:39;100499.49340820312;;;19.04;80.52
44531;BME280;30240;47.418;0.700;2022-07-22T03:51:04;100496.7529296875;;;18.94;80.86
44531;BME280;30240;47.418;0.700;2022-07-22T03:53:29;100499.85961914062;;;18.88;81.06
44531;BME280;30240;47.418;0.700;2022-07-22T03:55:53;100499.85961914062;;;18.88;81.06
44531;BME280;30240;47.418;0.700;2022-07-22T03:58:19;100502.4658203125;;;18.93;81.25
44531;BME280;30240;47.418;0.700;2022-07-22T04:00:44;100503.94287109375;;;18.94;81.15
44531;BME280;30240;47.418;0.700;2022-07-22T04:03:08;100500.830078125;;;18.91;81.29
44531;BME280;30240;47.418;0.700;2022-07-22T04:05:33;100498.49243164062;;;18.9;81.35
44531;BME280;30240;47.418;0.700;2022-07-22T04:07:58;100494.35424804688;;;18.88;81.37
44531;BME280;30240;47.418;0.700;2022-07-22T04:10:24;100494.35424804688;;;18.88;81.37
44531;BME280;30240;47.418;0.700;2022-07-22T04:12:48;100499.3896484375;;;18.9;81.28
44531;BME280;30240;47.418;0.700;2022-07-22T04:15:14;100492.7001953125;;;18.93;81.11
44531;BME280;30240;47.418;0.700;2022-07-22T04:17:38;100492.96875;;;18.81;81.56
44531;BME280;30240;47.418;0.700;2022-07-22T04:20:04;100499.86572265625;;;18.87;81.27
44531;BME280;30240;47.418;0.700;2022-07-22T04:22:28;100499.86572265625;;;18.87;81.27
44531;BME280;30240;47.418;0.700;2022-07-22T04:24:53;100501.3427734375;;;18.81;81.35
44531;BME280;30240;47.418;0.700;2022-07-22T04:27:19;100493.71948242188;;;18.73;81.61
44531;BME280;30240;47.418;0.700;2022-07-22T04:29:43;100493.82934570312;;;18.69;81.65
44531;BME280;30240;47.418;0.700;2022-07-22T04:32:08;100491.6748046875;;;18.69;81.75
44531;BME280;30240;47.418;0.700;2022-07-22T04:34:33;100491.6748046875;;;18.69;81.75
44531;BME280;30240;47.418;0.700;2022-07-22T04:36:59;100486.85913085938;;;18.66;82.08
44531;BME280;30240;47.418;0.700;2022-07-22T04:39:24;100487.80517578125;;;18.63;82.14
44531;BME280;30240;47.418;0.700;2022-07-22T04:41:48;100487.13989257812;;;18.71;81.86
44531;BME280;30240;47.418;0.700;2022-07-22T04:44:13;100488.31787109375;;;18.7;82.14
44531;BME280;30240;47.418;0.700;2022-07-22T04:46:38;100488.31787109375;;;18.7;82.14
44531;BME280;30240;47.418;0.700;2022-07-22T04:49:03;100492.626953125;;;18.74;82.2
44531;BME280;30240;47.418;0.700;2022-07-22T04:51:29;100486.29760742188;;;18.67;82.74
44531;BME280;30240;47.418;0.700;2022-07-22T04:53:54;100488.9404296875;;;18.74;82.81
44531;BME280;30240;47.418;0.700;2022-07-22T04:56:18;100490.625;;;18.73;82.75
44531;BME280;30240;47.418;0.700;2022-07-22T04:58:43;100490.625;;;18.73;82.75
44531;BME280;30240;47.418;0.700;2022-07-22T05:01:09;100482.33032226562;;;18.73;82.97
44531;BME280;30240;47.418;0.700;2022-07-22T05:03:37;100474.27978515625;;;18.78;82.84
44531;BME280;30240;47.418;0.700;2022-07-22T05:05:58;100476.94702148438;;;18.7;83.43
44531;BME280;30240;47.418;0.700;2022-07-22T05:08:23;100469.45190429688;;;18.76;83.52
44531;BME280;30240;47.418;0.700;2022-07-22T05:10:48;100469.45190429688;;;18.76;83.52
44531;BME280;30240;47.418;0.700;2022-07-22T05:13:14;100464.36157226562;;;18.73;83.54
44531;BME280;30240;47.418;0.700;2022-07-22T05:15:39;100463.39111328125;;;18.77;83.35
44531;BME280;30240;47.418;0.700;2022-07-22T05:18:04;100459.94262695312;;;18.88;83.14
44531;BME280;30240;47.418;0.700;2022-07-22T05:20:28;100455.32836914062;;;18.97;82.86
44531;BME280;30240;47.418;0.700;2022-07-22T05:22:53;100455.32836914062;;;18.97;82.86
44531;BME280;30240;47.418;0.700;2022-07-22T05:25:18;100440.1123046875;;;19.18;82.23
44531;BME280;30240;47.418;0.700;2022-07-22T05:27:49;100436.12670898438;;;19.22;82.17
44531;BME280;30240;47.418;0.700;2022-07-22T05:30:09;100425.5615234375;;;19.46;81.34
44531;BME280;30240;47.418;0.700;2022-07-22T05:32:33;100421.6796875;;;19.67;80.73
44531;BME280;30240;47.418;0.700;2022-07-22T05:34:59;100421.6796875;;;19.67;80.73
44531;BME280;30240;47.418;0.700;2022-07-22T05:37:23;100428.11889648438;;;19.99;79.4
44531;BME280;30240;47.418;0.700;2022-07-22T05:39:49;100437.2802734375;;;20.06;79.63
44531;BME280;30240;47.418;0.700;2022-07-22T05:42:13;100443.08471679688;;;20.05;79.79
44531;BME280;30240;47.418;0.700;2022-07-22T05:44:38;100447.607421875;;;20.33;78.69
44531;BME280;30240;47.418;0.700;2022-07-22T05:47:04;100444.76318359375;;;20.25;78.86
44531;BME280;30240;47.418;0.700;2022-07-22T05:49:28;100444.76318359375;;;20.25;78.86
44531;BME280;30240;47.418;0.700;2022-07-22T05:51:53;100448.32153320312;;;20.4;78.62
44531;BME280;30240;47.418;0.700;2022-07-22T05:54:18;100452.87475585938;;;20.34;78.6
44531;BME280;30240;47.418;0.700;2022-07-22T05:56:44;100458.984375;;;20.22;78.85
44531;BME280;30240;47.418;0.700;2022-07-22T05:59:08;100465.8447265625;;;20.33;78.65
44531;BME280;30240;47.418;0.700;2022-07-22T06:01:33;100465.8447265625;;;20.33;78.65
44531;BME280;30240;47.418;0.700;2022-07-22T06:03:58;100464.5751953125;;;20.44;78.49
44531;BME280;30240;47.418;0.700;2022-07-22T06:06:23;100465.98510742188;;;20.43;78.32
44531;BME280;30240;47.418;0.700;2022-07-22T06:08:49;100469.091796875;;;20.6;77.69
44531;BME280;30240;47.418;0.700;2022-07-22T06:11:13;100466.6259765625;;;20.7;77.2
44531;BME280;30240;47.418;0.700;2022-07-22T06:13:38;100466.6259765625;;;20.7;77.2
44531;BME280;30240;47.418;0.700;2022-07-22T06:16:04;100469.74487304688;;;20.92;76.68
44531;BME280;30240;47.418;0.700;2022-07-22T06:18:28;100472.27172851562;;;21.27;75.5
44531;BME280;30240;47.418;0.700;2022-07-22T06:20:53;100479.48608398438;;;21.4;74.83
44531;BME280;30240;47.418;0.700;2022-07-22T06:23:18;100474.96948242188;;;21.03;75.43
44531;BME280;30240;47.418;0.700;2022-07-22T06:25:44;100474.96948242188;;;21.03;75.43
44531;BME280;30240;47.418;0.700;2022-07-22T06:28:08;100476.53198242188;;;21.19;75.74
44531;BME280;30240;47.418;0.700;2022-07-22T06:30:34;100477.23388671875;;;21.5;74.92
44531;BME280;30240;47.418;0.700;2022-07-22T06:32:58;100472.9736328125;;;21.82;73.57
44531;BME280;30240;47.418;0.700;2022-07-22T06:35:24;100468.9697265625;;;21.92;73.33
44531;BME280;30240;47.418;0.700;2022-07-22T06:37:48;100468.9697265625;;;21.92;73.33
44531;BME280;30240;47.418;0.700;2022-07-22T06:40:13;100482.0556640625;;;22.21;71.93
44531;BME280;30240;47.418;0.700;2022-07-22T06:42:39;100500.86059570312;;;22.0;72.42
44531;BME280;30240;47.418;0.700;2022-07-22T06:45:04;100509.06982421875;;;22.52;71.04
44531;BME280;30240;47.418;0.700;2022-07-22T06:47:28;100527.09350585938;;;22.33;71.85
44531;BME280;30240;47.418;0.700;2022-07-22T06:49:53;100527.09350585938;;;22.33;71.85
44531;BME280;30240;47.418;0.700;2022-07-22T06:52:18;100550.1708984375;;;21.85;72.87
44531;BME280;30240;47.418;0.700;2022-07-22T06:54:43;100576.59912109375;;;21.75;73.72
44531;BME280;30240;47.418;0.700;2022-07-22T06:57:08;100595.47119140625;;;21.83;72.91
44531;BME280;30240;47.418;0.700;2022-07-22T06:59:34;100601.06201171875;;;21.88;73.06
44531;BME280;30240;47.418;0.700;2022-07-22T07:01:58;100601.06201171875;;;21.88;73.06
44531;BME280;30240;47.418;0.700;2022-07-22T07:04:23;100603.6376953125;;;21.61;74.24
44531;BME280;30240;47.418;0.700;2022-07-22T07:06:48;100588.00659179688;;;21.16;75.28
44531;BME280;30240;47.418;0.700;2022-07-22T07:09:13;100564.73388671875;;;20.77;77.0
44531;BME280;30240;47.418;0.700;2022-07-22T07:11:38;100537.3291015625;;;20.46;77.76
44531;BME280;30240;47.418;0.700;2022-07-22T07:14:03;100544.36645507812;;;20.28;79.31
44531;BME280;30240;47.418;0.700;2022-07-22T07:16:28;100544.36645507812;;;20.28;79.31
44531;BME280;30240;47.418;0.700;2022-07-22T07:18:54;100552.98461914062;;;20.5;78.26
44531;BME280;30240;47.418;0.700;2022-07-22T07:21:19;100556.982421875;;;20.71;78.12
44531;BME280;30240;47.418;0.700;2022-07-22T07:23:43;100518.21899414062;;;20.72;77.96
44531;BME280;30240;47.418;0.700;2022-07-22T07:26:08;100469.05517578125;;;20.64;78.38
44531;BME280;30240;47.418;0.700;2022-07-22T07:28:33;100469.05517578125;;;20.64;78.38
44531;BME280;30240;47.418;0.700;2022-07-22T07:30:58;100456.43920898438;;;20.63;78.72
44531;BME280;30240;47.418;0.700;2022-07-22T07:33:23;100456.65893554688;;;20.53;78.95
44531;BME280;30240;47.418;0.700;2022-07-22T07:35:49;100458.34350585938;;;20.51;79.03
44531;BME280;30240;47.418;0.700;2022-07-22T07:38:13;100452.56958007812;;;20.54;79.06
44531;BME280;30240;47.418;0.700;2022-07-22T07:40:38;100452.56958007812;;;20.54;79.06
44531;BME280;30240;47.418;0.700;2022-07-22T07:43:03;100433.96606445312;;;20.77;78.53
44531;BME280;30240;47.418;0.700;2022-07-22T07:45:29;100406.01806640625;;;20.67;78.95
44531;BME280;30240;47.418;0.700;2022-07-22T07:47:54;100380.21240234375;;;20.65;78.84
44531;BME280;30240;47.418;0.700;2022-07-22T07:50:18;100360.60180664062;;;20.6;78.84
44531;BME280;30240;47.418;0.700;2022-07-22T07:52:45;100360.60180664062;;;20.6;78.84
44531;BME280;30240;47.418;0.700;2022-07-22T07:55:09;100362.10327148438;;;20.85;78.14
44531;BME280;30240;47.418;0.700;2022-07-22T07:57:34;100362.90893554688;;;21.14;77.44
44531;BME280;30240;47.418;0.700;2022-07-22T07:59:59;100357.1533203125;;;21.4;76.52
44531;BME280;30240;47.418;0.700;2022-07-22T08:02:24;100353.21655273438;;;21.54;75.95
44531;BME280;30240;47.418;0.700;2022-07-22T08:04:49;100353.21655273438;;;21.54;75.95
44531;BME280;30240;47.418;0.700;2022-07-22T08:07:14;100336.376953125;;;21.53;75.79
44531;BME280;30240;47.418;0.700;2022-07-22T08:09:39;100309.23461914062;;;22.18;73.72
44531;BME280;30240;47.418;0.700;2022-07-22T08:12:04;100289.92309570312;;;22.36;73.24
44531;BME280;30240;47.418;0.700;2022-07-22T08:14:29;100278.564453125;;;22.51;72.63
44531;BME280;30240;47.418;0.700;2022-07-22T08:16:54;100278.564453125;;;22.51;72.63
44531;BME280;30240;47.418;0.700;2022-07-22T08:19:19;100282.861328125;;;22.92;71.13
44531;BME280;30240;47.418;0.700;2022-07-22T08:21:44;100302.42919921875;;;22.68;72.32
44531;BME280;30240;47.418;0.700;2022-07-22T08:24:09;100321.62475585938;;;23.07;71.34
44531;BME280;30240;47.418;0.700;2022-07-22T08:26:34;100357.080078125;;;23.1;70.72
44531;BME280;30240;47.418;0.700;2022-07-22T08:28:59;100357.080078125;;;23.1;70.72
44531;BME280;30240;47.418;0.700;2022-07-22T08:31:23;100383.81958007812;;;23.02;71.02
44531;BME280;30240;47.418;0.700;2022-07-22T08:33:49;100399.93896484375;;;23.15;69.88
44531;BME280;30240;47.418;0.700;2022-07-22T08:36:14;100405.45043945312;;;23.07;70.09
44531;BME280;30240;47.418;0.700;2022-07-22T08:38:39;100416.59545898438;;;23.29;69.1
44531;BME280;30240;47.418;0.700;2022-07-22T08:41:04;100416.59545898438;;;23.29;69.1
44531;BME280;30240;47.418;0.700;2022-07-22T08:43:29;100431.75048828125;;;23.8;67.68
44531;BME280;30240;47.418;0.700;2022-07-22T08:45:54;100440.81420898438;;;24.05;66.86
44531;BME280;30240;47.418;0.700;2022-07-22T08:48:20;100438.7451171875;;;23.21;70.16
44531;BME280;30240;47.418;0.700;2022-07-22T08:50:44;100428.32641601562;;;23.03;71.75
44531;BME280;30240;47.418;0.700;2022-07-22T08:53:09;100457.9833984375;;;23.61;69.7
44531;BME280;30240;47.418;0.700;2022-07-22T08:55:34;100457.9833984375;;;23.61;69.7
44531;BME280;30240;47.418;0.700;2022-07-22T08:57:59;100460.26611328125;;;23.49;69.86
44531;BME280;30240;47.418;0.700;2022-07-22T09:00:24;100436.23657226562;;;22.89;70.87
44531;BME280;30240;47.418;0.700;2022-07-22T09:02:49;100429.21752929688;;;22.85;70.68
44531;BME280;30240;47.418;0.700;2022-07-22T09:05:15;100421.64306640625;;;23.24;70.08
44531;BME280;30240;47.418;0.700;2022-07-22T09:07:40;100421.64306640625;;;23.24;70.08
44531;BME280;30240;47.418;0.700;2022-07-22T09:10:06;100420.42236328125;;;23.27;69.6
44531;BME280;30240;47.418;0.700;2022-07-22T09:12:29;100408.86840820312;;;23.44;69.22
44531;BME280;30240;47.418;0.700;2022-07-22T09:14:56;100414.92309570312;;;23.21;69.27
44531;BME280;30240;47.418;0.700;2022-07-22T09:17:22;100424.76806640625;;;23.61;68.43
44531;BME280;30240;47.418;0.700;2022-07-22T09:19:44;100424.76806640625;;;23.61;68.43
44531;BME280;30240;47.418;0.700;2022-07-22T09:22:09;100426.611328125;;;23.71;68.35
44531;BME280;30240;47.418;0.700;2022-07-22T09:24:34;100429.6142578125;;;23.58;68.79
44531;BME280;30240;47.418;0.700;2022-07-22T09:26:59;100433.04443359375;;;23.77;68.01
44531;BME280;30240;47.418;0.700;2022-07-22T09:29:24;100437.79907226562;;;23.32;69.1
44531;BME280;30240;47.418;0.700;2022-07-22T09:31:50;100437.79907226562;;;23.32;69.1
44531;BME280;30240;47.418;0.700;2022-07-22T09:34:28;100434.45434570312;;;23.7;68.45
44531;BME280;30240;47.418;0.700;2022-07-22T09:36:59;100417.77954101562;;;23.94;67.7
44531;BME280;30240;47.418;0.700;2022-07-22T09:39:28;100407.56225585938;;;23.35;69.52
44531;BME280;30240;47.418;0.700;2022-07-22T09:41:29;100428.82080078125;;;23.18;69.92
44531;BME280;30240;47.418;0.700;2022-07-22T09:43:54;100428.82080078125;;;23.18;69.92
44531;BME280;30240;47.418;0.700;2022-07-22T09:46:34;100437.8662109375;;;23.39;69.9
44531;BME280;30240;47.418;0.700;2022-07-22T09:48:44;100432.7880859375;;;23.24;69.18
44531;BME280;30240;47.418;0.700;2022-07-22T09:51:09;100443.89038085938;;;23.22;69.22
44531;BME280;30240;47.418;0.700;2022-07-22T09:53:34;100457.95288085938;;;23.31;69.27
44531;BME280;30240;47.418;0.700;2022-07-22T09:56:00;100457.95288085938;;;23.31;69.27
44531;BME280;30240;47.418;0.700;2022-07-22T09:58:24;100462.98217773438;;;23.15;69.33
44531;BME280;30240;47.418;0.700;2022-07-22T10:00:49;100463.5009765625;;;23.56;68.5
44531;BME280;30240;47.418;0.700;2022-07-22T10:03:18;100471.39282226562;;;23.83;67.9
44531;BME280;30240;47.418;0.700;2022-07-22T10:05:41;100490.99731445312;;;22.92;70.68
44531;BME280;30240;47.418;0.700;2022-07-22T10:08:05;100490.99731445312;;;22.92;70.68
44531;BME280;30240;47.418;0.700;2022-07-22T10:10:30;100484.36889648438;;;22.93;71.2
44531;BME280;30240;47.418;0.700;2022-07-22T10:12:56;100469.20166015625;;;23.15;70.77
44531;BME280;30240;47.418;0.700;2022-07-22T10:15:19;100459.12475585938;;;23.13;71.0
44531;BME280;30240;47.418;0.700;2022-07-22T10:17:46;100436.083984375;;;23.24;70.8
44531;BME280;30240;47.418;0.700;2022-07-22T10:20:10;100420.15380859375;;;23.18;70.84
44531;BME280;30240;47.418;0.700;2022-07-22T10:22:45;100420.15380859375;;;23.18;70.84
44531;BME280;30240;47.418;0.700;2022-07-22T10:24:59;100396.5576171875;;;23.32;70.32
44531;BME280;30240;47.418;0.700;2022-07-22T10:27:45;100365.00244140625;;;23.21;71.49
44531;BME280;30240;47.418;0.700;2022-07-22T10:29:49;100397.57690429688;;;23.28;70.75
44531;BME280;30240;47.418;0.700;2022-07-22T10:32:23;100457.58056640625;;;23.69;71.36
44531;BME280;30240;47.418;0.700;2022-07-22T10:34:38;100457.58056640625;;;23.69;71.36
44531;BME280;30240;47.418;0.700;2022-07-22T10:37:04;100491.30249023438;;;23.42;71.33
44531;BME280;30240;47.418;0.700;2022-07-22T10:39:29;100489.04418945312;;;24.01;69.75
44531;BME280;30240;47.418;0.700;2022-07-22T10:41:54;100485.65673828125;;;24.38;70.97
44531;BME280;30240;47.418;0.700;2022-07-22T10:44:48;100489.51416015625;;;24.29;69.79
44531;BME280;30240;47.418;0.700;2022-07-22T10:46:47;100489.51416015625;;;24.29;69.79
44531;BME280;30240;47.418;0.700;2022-07-22T10:49:10;100477.8564453125;;;24.11;69.46
44531;BME280;30240;47.418;0.700;2022-07-22T10:51:34;100472.46704101562;;;23.59;72.82
44531;BME280;30240;47.418;0.700;2022-07-22T10:54:01;100439.00756835938;;;23.11;75.61
44531;BME280;30240;47.418;0.700;2022-07-22T10:56:25;100462.7197265625;;;23.88;74.76
44531;BME280;30240;47.418;0.700;2022-07-22T10:58:57;100462.7197265625;;;23.88;74.76
44531;BME280;30240;47.418;0.700;2022-07-22T11:01:16;100479.32739257812;;;23.25;73.98
44531;BME280;30240;47.418;0.700;2022-07-22T11:03:40;100454.66918945312;;;23.31;75.07
44531;BME280;30240;47.418;0.700;2022-07-22T11:06:16;100436.23657226562;;;24.26;72.79
44531;BME280;30240;47.418;0.700;2022-07-22T11:08:29;100438.19580078125;;;24.53;72.3
44531;BME280;30240;47.418;0.700;2022-07-22T11:10:53;100438.19580078125;;;24.53;72.3
44531;BME280;30240;47.418;0.700;2022-07-22T11:13:31;100431.52465820312;;;24.8;71.98
44531;BME280;30240;47.418;0.700;2022-07-22T11:15:43;100434.326171875;;;24.91;73.41
44531;BME280;30240;47.418;0.700;2022-07-22T11:18:08;100427.65502929688;;;25.43;69.12
44531;BME280;30240;47.418;0.700;2022-07-22T11:20:33;100417.99926757812;;;26.18;67.65
44531;BME280;30240;47.418;0.700;2022-07-22T11:22:59;100417.99926757812;;;26.18;67.65